Time;durP1;ratioP1;P1;durP2;ratioP2;P2;SDS_P1;SDS_P2;PMS_P1;PMS_P2;Temp;Humidity;BMP_temperature;BMP_pressure;BME280_temperature;BME280_humidity;BME280_pressure;Samples;Min_cycle;Max_cycle;Signal;HPM_P1;HPM_P2
2023/07/05 00:00:36;;;;;;;9.40;3.70;;;;;;;16.22;78.84;100316.83;107201;1257;61289;-72
2023/07/05 00:03:03;;;;;;;8.10;3.60;;;;;;;16.22;78.92;100312.99;107151;1257;74298;-72
2023/07/05 00:05:30;;;;;;;8.50;3.80;;;;;;;16.22;78.90;100305.80;107500;1257;71089;-72
2023/07/05 00:07:57;;;;;;;9.60;3.90;;;;;;;16.23;78.83;100305.50;107758;1257;71444;-72
2023/07/05 00:10:24;;;;;;;6.80;3.70;;;;;;;16.24;78.86;100312.27;107346;1257;62027;-72
2023/07/05 00:12:51;;;;;;;6.30;3.50;;;;;;;16.25;78.66;100314.85;107800;1257;61238;-72
2023/07/05 00:15:17;;;;;;;7.60;3.50;;;;;;;16.25;78.68;100311.98;107468;1256;73497;-73
2023/07/05 00:17:44;;;;;;;6.30;3.40;;;;;;;16.26;78.65;100309.16;107488;1255;71162;-72
2023/07/05 00:20:12;;;;;;;9.20;3.30;;;;;;;16.27;78.62;100301.33;107136;1257;72739;-72
2023/07/05 00:22:39;;;;;;;9.00;3.70;;;;;;;16.28;78.73;100290.88;107132;1258;62284;-71
2023/07/05 00:25:06;;;;;;;9.90;3.50;;;;;;;16.29;78.70;100283.85;107269;1255;61222;-73
2023/07/05 00:27:33;;;;;;;11.00;3.30;;;;;;;16.30;78.73;100276.52;107715;1256;74253;-71
2023/07/05 00:30:00;;;;;;;7.60;3.50;;;;;;;16.29;78.79;100276.07;107150;1256;69920;-71
2023/07/05 00:32:27;;;;;;;6.90;3.50;;;;;;;16.27;78.80;100272.91;107236;1256;71826;-72
2023/07/05 00:34:53;;;;;;;9.50;3.90;;;;;;;16.28;78.80;100265.21;107469;1256;62070;-71
2023/07/05 00:37:20;;;;;;;9.00;3.50;;;;;;;16.29;78.86;100262.73;107434;1256;60098;-72
2023/07/05 00:39:47;;;;;;;6.60;3.20;;;;;;;16.30;78.91;100261.40;107354;1257;74756;-72
2023/07/05 00:42:13;;;;;;;9.50;3.80;;;;;;;16.34;78.80;100246.05;107020;1257;500236;-71
2023/07/05 00:44:40;;;;;;;8.50;3.80;;;;;;;16.36;78.71;100245.73;107877;1256;71536;-72
2023/07/05 00:47:24;;;;;;;9.50;3.90;;;;;;;16.38;78.54;100247.23;107283;1257;63693;-73
2023/07/05 00:49:51;;;;;;;8.30;3.50;;;;;;;16.39;78.38;100238.29;107663;1257;61189;-72
2023/07/05 00:52:18;;;;;;;9.80;3.30;;;;;;;16.40;78.07;100238.43;107517;1256;74087;-72
2023/07/05 00:54:49;;;;;;;7.30;3.00;;;;;;;16.42;77.90;100239.23;108097;1257;69986;-72
2023/07/05 00:57:20;;;;;;;6.60;3.50;;;;;;;16.43;77.64;100226.35;108135;1257;72137;-71
2023/07/05 00:59:52;;;;;;;8.30;3.50;;;;;;;16.43;77.68;100224.60;108547;1255;62320;-71
2023/07/05 01:02:19;;;;;;;7.10;3.40;;;;;;;16.44;77.55;100226.11;108576;1257;60362;-71
2023/07/05 01:04:46;;;;;;;9.60;3.50;;;;;;;16.45;77.62;100218.52;108158;1257;74830;-72
2023/07/05 01:07:13;;;;;;;8.60;3.50;;;;;;;16.46;77.65;100213.44;108236;1257;71696;-72
2023/07/05 01:09:40;;;;;;;9.00;3.80;;;;;;;16.47;77.66;100208.17;108371;1257;72801;-72
2023/07/05 01:12:06;;;;;;;5.90;3.20;;;;;;;16.49;77.73;100211.30;107549;1256;61196;-72
2023/07/05 01:14:43;;;;;;;8.40;3.30;;;;;;;16.49;77.80;100206.80;107408;1256;61274;-71
2023/07/05 01:17:35;;;;;;;9.20;3.90;;;;;;;16.50;77.67;100197.41;107249;1257;75119;-72
2023/07/05 01:20:09;;;;;;;11.70;4.40;;;;;;;16.50;77.78;100190.52;107116;1257;70918;-71
2023/07/05 01:23:20;;;;;;;10.80;4.40;;;;;;;16.52;77.86;100175.35;107588;1256;72735;-72
2023/07/05 01:26:06;;;;;;;10.30;3.60;;;;;;;16.50;77.87;100173.22;107258;1256;62018;-71
2023/07/05 01:28:51;;;;;;;7.90;3.40;;;;;;;16.49;77.86;100167.93;107421;1256;59581;-73
2023/07/05 01:31:24;;;;;;;7.70;3.20;;;;;;;16.45;77.94;100158.59;107125;1256;75187;-71
2023/07/05 01:34:14;;;;;;;9.50;3.50;;;;;;;16.43;77.63;100146.52;107063;1258;70634;-71
2023/07/05 01:36:42;;;;;;;9.40;3.10;;;;;;;16.42;77.58;100138.95;107120;1256;72713;-72
2023/07/05 01:39:08;;;;;;;8.00;3.20;;;;;;;16.41;77.40;100131.64;107349;1256;61264;-72
2023/07/05 01:41:35;;;;;;;9.80;3.60;;;;;;;16.41;77.24;100129.70;107513;1256;61151;-72
2023/07/05 01:44:03;;;;;;;9.50;3.40;;;;;;;16.41;77.15;100123.65;107185;1257;74035;-72
2023/07/05 01:46:46;;;;;;;8.60;3.50;;;;;;;16.41;76.81;100119.20;108197;1256;70025;-72
2023/07/05 01:49:16;;;;;;;7.10;3.50;;;;;;;16.41;76.72;100111.29;108529;1257;71905;-73
2023/07/05 01:51:43;;;;;;;7.00;3.60;;;;;;;16.42;76.71;100105.10;108558;1256;60673;-71
2023/07/05 01:54:18;;;;;;;7.10;3.60;;;;;;;16.43;76.67;100106.27;107258;1256;61157;-71
2023/07/05 01:57:11;;;;;;;7.80;3.20;;;;;;;16.45;76.53;100110.00;108322;1256;74666;-72
2023/07/05 01:59:44;;;;;;;8.70;3.50;;;;;;;16.46;76.54;100109.56;107709;1256;71436;-73
2023/07/05 02:02:14;;;;;;;7.30;3.30;;;;;;;16.48;76.62;100110.45;107522;1256;71748;-73
2023/07/05 02:04:42;;;;;;;6.90;3.20;;;;;;;16.49;76.67;100099.02;107343;1257;61733;-72
2023/07/05 02:07:09;;;;;;;8.00;3.80;;;;;;;16.49;77.00;100081.80;107849;1255;60360;-73
2023/07/05 02:09:37;;;;;;;7.80;3.70;;;;;;;16.49;77.25;100092.70;107229;1256;74731;-71
2023/07/05 02:12:06;;;;;;;9.10;3.70;;;;;;;16.47;77.69;100103.95;107370;1256;69988;-72
2023/07/05 02:14:33;;;;;;;7.20;3.80;;;;;;;16.46;77.99;100098.41;107248;1257;72685;-72
2023/07/05 02:17:00;;;;;;;7.90;3.90;;;;;;;16.45;78.36;100087.96;107636;1256;61794;-73
2023/07/05 02:19:26;;;;;;;9.10;3.80;;;;;;;16.45;78.44;100079.43;107779;1256;61033;-72
2023/07/05 02:21:53;;;;;;;10.40;4.30;;;;;;;16.43;78.52;100073.94;107467;1256;74720;-70
2023/07/05 02:24:20;;;;;;;7.40;4.30;;;;;;;16.42;78.71;100063.41;108135;1256;71127;-72
2023/07/05 02:26:47;;;;;;;11.00;4.70;;;;;;;16.43;78.67;100063.90;107557;1256;72749;-71
2023/07/05 02:29:13;;;;;;;7.80;4.40;;;;;;;16.43;78.88;100062.09;107273;1255;61730;-70
2023/07/05 02:31:40;;;;;;;9.30;4.30;;;;;;;16.45;79.00;100056.04;107332;1257;61130;-72
2023/07/05 02:34:07;;;;;;;9.20;4.60;;;;;;;16.46;79.15;100059.64;107544;1256;74576;-71
2023/07/05 02:36:34;;;;;;;11.10;4.40;;;;;;;16.46;79.18;100064.30;107688;1256;70583;-71
2023/07/05 02:39:01;;;;;;;8.60;4.20;;;;;;;16.45;79.03;100068.94;108011;1257;70533;-71
2023/07/05 02:41:28;;;;;;;9.00;4.10;;;;;;;16.43;79.16;100054.17;107891;1256;63739;-72
2023/07/05 02:43:54;;;;;;;10.00;4.60;;;;;;;16.44;79.33;100050.45;107428;1255;59288;-70
2023/07/05 02:46:25;;;;;;;8.90;4.40;;;;;;;16.45;79.33;100041.42;107977;1256;74016;-72
2023/07/05 02:48:55;;;;;;;9.60;5.20;;;;;;;16.45;79.63;100036.19;107966;1260;71722;-70
2023/07/05 02:51:22;;;;;;;11.70;7.30;;;;;;;16.44;79.83;100032.83;107548;1259;73200;-70
2023/07/05 02:53:49;;;;;;;15.30;11.30;;;;;;;16.42;80.18;100031.02;107470;1256;61396;-70
2023/07/05 02:56:15;;;;;;;10.30;4.90;;;;;;;16.38;80.29;100023.36;107677;1256;61164;-71
2023/07/05 02:58:42;;;;;;;10.40;4.90;;;;;;;16.35;80.37;100009.48;107596;1256;75067;-70
2023/07/05 03:01:09;;;;;;;8.10;4.30;;;;;;;16.34;80.66;99993.08;107754;1256;71356;-72
2023/07/05 03:03:36;;;;;;;8.90;4.50;;;;;;;16.34;81.08;99981.02;107486;1257;71442;-70
2023/07/05 03:06:03;;;;;;;10.10;4.70;;;;;;;16.32;81.38;99980.60;107262;1257;61367;-70
2023/07/05 03:08:30;;;;;;;9.50;4.80;;;;;;;16.27;81.43;99972.83;107806;1255;61404;-73
2023/07/05 03:11:01;;;;;;;8.80;5.20;;;;;;;16.22;81.51;99966.77;107250;1256;73544;-71
2023/07/05 03:13:29;;;;;;;10.60;5.20;;;;;;;16.18;81.73;99960.88;107430;1256;69938;-72
2023/07/05 03:15:57;;;;;;;7.90;4.70;;;;;;;16.14;81.84;99963.08;107881;1256;71445;-72
2023/07/05 03:18:25;;;;;;;8.90;5.20;;;;;;;16.11;82.06;99959.84;107698;1256;61733;-71
2023/07/05 03:20:53;;;;;;;10.20;5.00;;;;;;;16.07;82.16;99952.31;107913;1257;60049;-70
2023/07/05 03:23:21;;;;;;;12.00;5.30;;;;;;;16.04;82.36;99951.33;107706;1256;74426;-72
2023/07/05 03:26:02;;;;;;;8.80;4.80;;;;;;;16.03;82.54;99938.55;107547;1256;71326;-71
2023/07/05 03:28:31;;;;;;;7.90;4.70;;;;;;;16.00;82.52;99938.14;107932;1256;71444;-73
2023/07/05 03:31:02;;;;;;;11.50;5.30;;;;;;;16.00;82.70;99938.27;107312;1257;61204;-70
2023/07/05 03:33:30;;;;;;;10.50;5.00;;;;;;;16.00;82.66;99941.31;107828;1256;59884;-72
2023/07/05 03:36:02;;;;;;;8.50;5.00;;;;;;;16.01;82.68;99941.19;108022;1256;73574;-72
2023/07/05 03:38:30;;;;;;;9.00;5.10;;;;;;;16.01;82.85;99937.93;107593;1257;70883;-73
2023/07/05 03:41:01;;;;;;;8.70;5.00;;;;;;;16.01;82.83;99931.35;107329;1255;72721;-72
2023/07/05 03:43:30;;;;;;;10.80;5.00;;;;;;;16.02;82.71;99925.44;107516;1256;61221;-72
2023/07/05 03:46:00;;;;;;;10.40;5.50;;;;;;;16.05;82.78;99918.08;107562;1256;61126;-71
2023/07/05 03:48:30;;;;;;;12.20;6.30;;;;;;;16.06;82.84;99912.21;107150;1256;75669;-72
2023/07/05 03:50:58;;;;;;;15.50;10.20;;;;;;;16.08;82.97;99908.79;107645;1257;69536;-71
2023/07/05 03:53:25;;;;;;;19.70;13.20;;;;;;;16.08;83.19;99910.93;107658;1255;73270;-71
2023/07/05 03:55:52;;;;;;;31.60;20.90;;;;;;;16.09;83.40;99909.27;107718;1256;60284;-70
2023/07/05 03:58:20;;;;;;;19.70;11.90;;;;;;;16.09;83.61;99905.49;107807;1256;60504;-71
2023/07/05 04:00:46;;;;;;;18.80;9.90;;;;;;;16.12;83.55;99903.52;107699;1256;74728;-70
2023/07/05 04:03:13;;;;;;;13.70;7.70;;;;;;;16.12;83.56;99900.21;107411;1256;71255;-70
2023/07/05 04:05:40;;;;;;;9.30;5.50;;;;;;;16.11;83.54;99893.27;107388;1259;71446;-71
2023/07/05 04:08:07;;;;;;;8.40;5.10;;;;;;;16.13;83.71;99891.89;107616;1255;62340;-70
2023/07/05 04:10:33;;;;;;;9.80;5.70;;;;;;;16.14;83.77;99894.75;107328;1256;61259;-70
2023/07/05 04:13:00;;;;;;;12.10;5.60;;;;;;;16.17;83.78;99887.98;107906;1257;73449;-72
2023/07/05 04:15:27;;;;;;;10.10;5.60;;;;;;;16.20;83.92;99892.80;107715;1256;69688;-71
2023/07/05 04:17:54;;;;;;;12.00;5.30;;;;;;;16.21;83.75;99892.08;107679;1256;71557;-72
2023/07/05 04:20:20;;;;;;;8.10;5.20;;;;;;;16.22;83.62;99886.91;107458;1257;63405;-71
2023/07/05 04:22:47;;;;;;;11.00;5.50;;;;;;;16.24;83.49;99881.81;107707;1256;59135;-70
2023/07/05 04:25:14;;;;;;;9.10;5.20;;;;;;;16.24;83.48;99876.22;107192;1256;74622;-71
2023/07/05 04:27:40;;;;;;;9.30;5.20;;;;;;;16.26;83.64;99878.23;107580;1256;70979;-71
2023/07/05 04:30:11;;;;;;;8.60;5.30;;;;;;;16.28;83.59;99876.10;107560;1255;71497;-73
2023/07/05 04:32:38;;;;;;;10.30;5.30;;;;;;;16.32;83.69;99868.58;107454;1256;61122;-73
2023/07/05 04:35:05;;;;;;;10.20;5.30;;;;;;;16.38;83.97;99861.94;108068;1256;59412;-73
2023/07/05 04:37:32;;;;;;;9.80;5.10;;;;;;;16.45;83.85;99867.14;107466;1259;75342;-74
2023/07/05 04:40:04;;;;;;;11.50;8.50;;;;;;;16.52;83.63;99867.52;107991;1256;71290;-71
2023/07/05 04:42:30;;;;;;;11.30;5.80;;;;;;;16.58;83.40;99867.96;107687;1256;72849;-72
2023/07/05 04:44:58;;;;;;;9.90;5.50;;;;;;;16.60;83.33;99869.52;107703;1262;61262;-74
2023/07/05 04:47:24;;;;;;;44.10;25.60;;;;;;;16.64;83.24;99874.30;107582;1257;61150;-71
2023/07/05 04:49:51;;;;;;;10.90;5.60;;;;;;;16.84;84.88;99870.52;107667;1256;73413;-70
2023/07/05 04:52:18;;;;;;;8.00;4.80;;;;;;;17.20;84.00;99865.91;107659;1256;69817;-70
2023/07/05 04:54:45;;;;;;;8.70;5.00;;;;;;;17.53;81.86;99867.77;108212;1256;73032;-72
2023/07/05 04:57:11;;;;;;;8.90;5.90;;;;;;;17.59;79.39;99866.06;107546;1256;61691;-71
2023/07/05 04:59:56;;;;;;;9.90;5.60;;;;;;;17.52;78.59;99858.65;107913;1256;61200;-70
2023/07/05 05:02:23;;;;;;;8.10;5.20;;;;;;;17.43;78.60;99856.87;107494;1256;74514;-71
2023/07/05 05:04:50;;;;;;;10.00;5.40;;;;;;;17.32;79.05;99852.23;107649;1256;69683;-71
2023/07/05 05:07:17;;;;;;;9.30;5.40;;;;;;;17.23;79.55;99846.80;107660;1256;71117;-70
2023/07/05 05:09:44;;;;;;;9.40;5.50;;;;;;;17.18;80.09;99844.00;107897;1256;61438;-72
2023/07/05 05:12:11;;;;;;;9.20;4.90;;;;;;;17.19;80.87;99838.73;107650;1256;61748;-71
2023/07/05 05:14:37;;;;;;;8.80;5.60;;;;;;;17.18;80.52;99835.49;107629;1256;73622;-70
2023/07/05 05:17:04;;;;;;;8.20;5.30;;;;;;;17.17;81.05;99833.77;107273;1256;69661;-71
2023/07/05 05:19:31;;;;;;;9.50;5.10;;;;;;;17.13;81.55;99830.95;107527;1259;72913;-72
2023/07/05 05:21:57;;;;;;;10.30;5.60;;;;;;;17.08;81.97;99826.63;107649;1256;59102;-70
2023/07/05 05:24:24;;;;;;;8.60;5.30;;;;;;;17.03;82.39;99825.10;107601;1256;61264;-72
2023/07/05 05:26:53;;;;;;;8.40;5.50;;;;;;;16.98;82.87;99832.02;107696;1256;73474;-72
2023/07/05 05:29:21;;;;;;;7.80;5.00;;;;;;;16.92;83.57;99836.30;108356;1256;70589;-70
2023/07/05 05:31:48;;;;;;;8.70;5.60;;;;;;;16.84;84.55;99843.73;107418;1256;73946;-73
2023/07/05 05:34:15;;;;;;;8.00;5.50;;;;;;;16.76;85.21;99853.19;107587;1259;61253;-72
2023/07/05 05:36:42;;;;;;;8.90;5.20;;;;;;;16.69;86.42;99857.23;107782;1256;61194;-73
2023/07/05 05:39:09;;;;;;;10.70;5.40;;;;;;;16.69;87.65;99872.97;107358;1259;74718;-73
2023/07/05 05:41:36;;;;;;;9.30;5.50;;;;;;;16.70;88.43;99882.80;107741;1257;71236;-74
2023/07/05 05:44:02;;;;;;;7.90;5.10;;;;;;;16.71;88.67;99890.54;107988;1255;73885;-77
2023/07/05 05:46:29;;;;;;;8.40;5.10;;;;;;;16.65;88.34;99897.04;107349;1256;62204;-76
2023/07/05 05:48:57;;;;;;;8.60;4.90;;;;;;;16.51;89.51;99913.54;107845;1255;61253;-75
2023/07/05 05:51:24;;;;;;;10.60;5.30;;;;;;;16.36;91.14;99916.56;107624;1258;74018;-73
2023/07/05 05:53:51;;;;;;;8.20;5.00;;;;;;;16.22;92.98;99914.53;107821;1256;70853;-77
2023/07/05 05:56:18;;;;;;;7.80;4.40;;;;;;;16.08;94.98;99917.41;107685;1256;72809;-74
2023/07/05 05:58:46;;;;;;;8.20;4.90;;;;;;;15.96;96.79;99912.32;106793;1255;61266;-74
2023/07/05 06:01:13;;;;;;;8.40;6.50;;;;;;;15.83;98.29;99905.35;106391;1256;61234;-74
2023/07/05 06:03:40;;;;;;;6.20;3.80;;;;;;;15.75;98.53;99889.30;106828;1256;74757;-75
2023/07/05 06:06:07;;;;;;;6.40;3.40;;;;;;;15.68;98.83;99865.03;106719;1256;70260;-74
2023/07/05 06:08:34;;;;;;;5.50;3.50;;;;;;;15.64;98.78;99836.95;106870;1256;72750;-74
2023/07/05 06:11:05;;;;;;;7.10;3.90;;;;;;;15.62;99.28;99829.58;106618;1259;61299;-74
2023/07/05 06:13:32;;;;;;;14.40;9.10;;;;;;;15.60;99.96;99834.84;106340;1257;61599;-78
2023/07/05 06:16:01;;;;;;;34.60;26.30;;;;;;;15.61;100.00;99809.27;106813;1256;73470;-77
2023/07/05 06:18:41;;;;;;;15.10;10.50;;;;;;;15.62;100.00;99804.39;106410;1256;70896;-74
2023/07/05 06:21:10;;;;;;;6.40;4.60;;;;;;;15.65;100.00;99814.73;107318;1256;71120;-76
2023/07/05 06:23:37;;;;;;;10.20;6.10;;;;;;;15.67;100.00;99823.13;107065;1256;62012;-78
2023/07/05 06:26:04;;;;;;;10.10;6.30;;;;;;;15.68;100.00;99822.61;107287;1256;61324;-76
2023/07/05 06:28:31;;;;;;;6.60;4.50;;;;;;;15.71;100.00;99834.10;107438;1257;74563;-75
2023/07/05 06:31:07;;;;;;;8.50;5.00;;;;;;;15.75;100.00;99834.80;107273;1256;69755;-75
2023/07/05 06:33:34;;;;;;;10.40;5.90;;;;;;;15.80;100.00;99847.59;107254;1256;71246;-77
2023/07/05 06:36:03;;;;;;;7.90;5.30;;;;;;;15.86;100.00;99847.91;107386;1255;61362;-77
2023/07/05 06:38:30;;;;;;;7.40;5.00;;;;;;;15.93;100.00;99858.66;107008;1256;61247;-72
2023/07/05 06:40:57;;;;;;;7.60;4.80;;;;;;;15.98;100.00;99856.98;107159;1256;73694;-77
2023/07/05 06:43:25;;;;;;;11.00;7.20;;;;;;;16.04;100.00;99840.36;107169;1256;70148;-76
2023/07/05 06:45:54;;;;;;;6.70;3.40;;;;;;;16.09;100.00;99826.79;107498;1256;71990;-75
2023/07/05 06:48:21;;;;;;;5.50;3.40;;;;;;;16.16;100.00;99834.77;106837;1257;59936;-75
2023/07/05 06:50:51;;;;;;;9.80;6.50;;;;;;;16.23;100.00;99851.45;106897;1257;60381;-75
2023/07/05 06:53:19;;;;;;;5.10;3.30;;;;;;;16.38;100.00;99838.39;106853;1257;74421;-79
2023/07/05 06:56:07;;;;;;;10.90;7.30;;;;;;;16.58;100.00;99838.55;106805;1257;71341;-77
2023/07/05 06:58:34;;;;;;;5.70;3.60;;;;;;;16.76;100.00;99836.42;107019;1257;72693;-77
2023/07/05 07:01:01;;;;;;;9.70;6.30;;;;;;;16.93;100.00;99838.13;107247;1257;61403;-78
2023/07/05 07:03:28;;;;;;;6.50;3.50;;;;;;;17.11;100.00;99842.83;107115;1256;61343;-77
2023/07/05 07:05:57;;;;;;;13.20;9.50;;;;;;;17.28;100.00;99847.33;107034;1255;73443;-78
2023/07/05 07:08:29;;;;;;;12.10;8.40;;;;;;;17.45;100.00;99843.65;108786;1256;71619;-78
2023/07/05 07:11:00;;;;;;;7.30;4.60;;;;;;;17.59;99.97;99844.65;107123;1256;72167;-76
2023/07/05 07:13:28;;;;;;;6.40;3.50;;;;;;;17.75;99.61;99846.86;106940;1258;61228;-75
2023/07/05 07:16:04;;;;;;;10.00;6.70;;;;;;;17.90;98.86;99850.98;107566;1256;60852;-78
2023/07/05 07:18:31;;;;;;;7.90;4.80;;;;;;;18.03;98.20;99856.52;106948;1262;75003;-78
2023/07/05 07:20:59;;;;;;;6.50;4.10;;;;;;;18.09;97.24;99864.76;107758;1256;70255;-82
2023/07/05 07:23:26;;;;;;;7.40;4.30;;;;;;;18.12;96.86;99868.41;107009;1259;71485;-78
2023/07/05 07:26:08;;;;;;;8.80;4.80;;;;;;;18.14;96.09;99874.19;106801;1257;60774;-80
2023/07/05 07:28:36;;;;;;;3.40;2.20;;;;;;;18.16;95.30;99875.76;107050;1256;61673;-79
2023/07/05 07:31:10;;;;;;;4.00;2.50;;;;;;;18.21;95.30;99884.05;106826;1256;72971;-77
2023/07/05 07:33:38;;;;;;;5.80;3.20;;;;;;;18.33;95.40;99884.23;106818;1260;69968;-78
2023/07/05 07:36:16;;;;;;;7.50;3.60;;;;;;;18.42;94.63;99887.09;107120;1256;72445;-75
2023/07/05 07:38:43;;;;;;;6.00;3.60;;;;;;;18.44;94.73;99897.06;107168;1256;62149;-79
2023/07/05 07:41:20;;;;;;;4.90;3.10;;;;;;;18.42;94.11;99912.77;106974;1256;61351;-74
2023/07/05 07:43:50;;;;;;;3.00;1.70;;;;;;;18.32;90.94;99933.83;107071;1256;75179;-74
2023/07/05 07:46:19;;;;;;;4.60;3.00;;;;;;;18.01;80.39;99947.30;108551;1256;71643;-75
2023/07/05 07:48:48;;;;;;;4.20;1.80;;;;;;;17.73;79.03;99942.58;106842;1257;71987;-75
2023/07/05 07:51:17;;;;;;;4.40;2.60;;;;;;;17.44;77.80;99927.08;106821;1255;61260;-76
2023/07/05 07:54:03;;;;;;;4.90;3.00;;;;;;;17.24;79.01;99941.60;107454;1256;61718;-76
2023/07/05 07:56:30;;;;;;;4.40;1.90;;;;;;;17.11;79.16;99949.80;106962;1257;73497;-72
2023/07/05 07:59:00;;;;;;;3.70;1.80;;;;;;;17.11;79.87;99937.58;106787;1256;69064;-72
2023/07/05 08:01:31;;;;;;;4.60;1.90;;;;;;;17.04;79.58;99939.67;106898;1257;71001;-73
2023/07/05 08:04:02;;;;;;;5.40;3.20;;;;;;;17.01;80.28;99946.70;107314;1256;61704;-74
2023/07/05 08:06:38;;;;;;;5.00;2.00;;;;;;;17.09;81.41;99963.33;106582;1257;61289;-72
2023/07/05 08:09:08;;;;;;;3.60;1.90;;;;;;;17.10;80.55;99960.23;105986;1256;74671;-72
2023/07/05 08:11:36;;;;;;;3.80;1.90;;;;;;;17.16;81.52;99957.02;106395;1256;71240;-72
2023/07/05 08:14:03;;;;;;;2.60;1.80;;;;;;;17.25;80.65;99953.90;106500;1256;72460;-72
2023/07/05 08:16:29;;;;;;;3.30;1.90;;;;;;;17.37;81.38;99950.90;106274;1256;62066;-73
2023/07/05 08:18:57;;;;;;;3.50;1.80;;;;;;;17.48;80.59;99947.96;106277;1256;62181;-72
2023/07/05 08:21:24;;;;;;;4.10;2.10;;;;;;;17.57;78.80;99954.52;106610;1256;73269;-78
2023/07/05 08:23:51;;;;;;;3.00;1.90;;;;;;;17.67;76.14;99961.15;106182;1260;71030;-74
2023/07/05 08:26:17;;;;;;;3.40;1.80;;;;;;;17.79;76.10;99957.93;106065;1257;72783;-73
2023/07/05 08:28:46;;;;;;;4.00;2.20;;;;;;;17.89;73.27;99972.74;106170;1256;62252;-72
2023/07/05 08:31:13;;;;;;;4.70;2.30;;;;;;;17.96;72.42;99964.91;106099;1257;61302;-76
2023/07/05 08:33:40;;;;;;;2.90;1.70;;;;;;;18.00;69.45;99967.07;106524;1256;73504;-71
2023/07/05 08:36:09;;;;;;;3.10;1.80;;;;;;;18.05;70.81;99964.48;105998;1256;70911;-72
2023/07/05 08:38:42;;;;;;;4.30;1.50;;;;;;;18.14;69.51;99967.21;106141;1257;70456;-73
2023/07/05 08:41:33;;;;;;;3.20;1.60;;;;;;;18.19;68.19;99987.31;106406;1256;61732;-75
2023/07/05 08:44:09;;;;;;;4.60;1.90;;;;;;;18.26;67.10;99981.91;105924;1257;61429;-73
2023/07/05 08:46:44;;;;;;;5.10;1.50;;;;;;;18.28;64.70;99992.03;106973;1259;75435;-72
2023/07/05 08:49:26;;;;;;;3.30;1.80;;;;;;;18.34;64.78;99988.11;106444;1255;71275;-72
2023/07/05 08:51:56;;;;;;;5.40;1.70;;;;;;;18.34;62.79;100003.15;106454;1256;71532;-72
2023/07/05 08:54:31;;;;;;;4.70;1.90;;;;;;;18.40;62.28;99991.59;105982;1256;62340;-73
2023/07/05 08:57:19;;;;;;;3.40;2.20;;;;;;;18.56;63.05;99982.70;106733;1256;61550;-72
2023/07/05 09:00:08;;;;;;;3.40;1.60;;;;;;;18.61;60.40;99990.84;106219;1259;73216;-71
2023/07/05 09:02:35;;;;;;;3.60;1.80;;;;;;;18.70;59.84;100001.09;106187;1256;70259;-76
2023/07/05 09:05:04;;;;;;;4.90;3.10;;;;;;;18.80;59.13;100006.25;105823;1260;71266;-74
2023/07/05 09:07:43;;;;;;;4.00;2.30;;;;;;;18.91;58.10;100006.20;106492;1257;61184;-72
2023/07/05 09:10:21;;;;;;;4.10;2.00;;;;;;;18.93;57.70;100011.98;105909;1257;61385;-73
2023/07/05 09:13:13;;;;;;;3.90;2.20;;;;;;;19.12;58.00;100014.61;106045;1259;73513;-73
2023/07/05 09:16:21;;;;;;;4.40;1.60;;;;;;;19.29;57.65;100015.38;106385;1256;69819;-76
2023/07/05 09:19:07;;;;;;;5.10;2.30;;;;;;;19.47;57.61;100031.30;105879;1258;72650;-72
2023/07/05 09:21:36;;;;;;;7.90;4.50;;;;;;;19.71;57.41;100029.19;105817;1256;61298;-71
2023/07/05 09:24:06;;;;;;;3.30;1.90;;;;;;;19.80;56.71;100042.55;105998;1257;61494;-72
2023/07/05 09:26:37;;;;;;;2.60;1.50;;;;;;;19.78;54.68;100047.38;106513;1257;73610;-70
2023/07/05 09:29:32;;;;;;;2.90;1.70;;;;;;;19.71;52.89;100042.00;105865;1257;69074;-73
2023/07/05 09:32:09;;;;;;;4.70;1.80;;;;;;;19.76;52.65;100042.61;106303;1256;73106;-74
2023/07/05 09:34:43;;;;;;;3.10;1.70;;;;;;;19.87;52.82;100040.95;106128;1257;61300;-74
2023/07/05 09:37:26;;;;;;;3.10;1.50;;;;;;;20.03;51.51;100050.33;105916;1257;61356;-72
2023/07/05 09:40:10;;;;;;;3.50;1.80;;;;;;;20.09;51.07;100047.98;105850;1262;74702;-75
2023/07/05 09:42:57;;;;;;;4.20;2.10;;;;;;;20.12;51.99;100057.70;106237;1256;71189;-73
2023/07/05 09:45:26;;;;;;;4.40;1.80;;;;;;;20.26;51.93;100054.17;105775;1259;72667;-74
2023/07/05 09:48:05;;;;;;;2.80;1.80;;;;;;;20.39;51.14;100067.76;106230;1256;61250;-74
2023/07/05 09:50:32;;;;;;;3.30;1.80;;;;;;;20.30;49.60;100075.11;105931;1259;61167;-73
2023/07/05 09:53:31;;;;;;;4.20;1.40;;;;;;;20.39;48.64;100072.50;106257;1256;73151;-72
2023/07/05 09:56:05;;;;;;;4.80;1.80;;;;;;;20.32;47.81;100085.03;105922;1256;70137;-74
2023/07/05 09:58:33;;;;;;;4.90;1.80;;;;;;;20.27;48.28;100077.83;105708;1257;71387;-71
2023/07/05 10:01:04;;;;;;;3.20;1.70;;;;;;;20.28;48.59;100061.20;106650;1259;61106;-72
2023/07/05 10:03:36;;;;;;;4.20;1.80;;;;;;;20.33;47.71;100067.72;105957;1259;61163;-73
2023/07/05 10:06:09;;;;;;;2.90;1.40;;;;;;;20.24;46.59;100067.14;106058;1259;75179;-72
2023/07/05 10:08:48;;;;;;;3.50;1.40;;;;;;;20.15;46.02;100068.44;105847;1259;69973;-74
2023/07/05 10:11:34;;;;;;;6.90;2.40;;;;;;;20.16;46.60;100068.63;106452;1256;72042;-73
2023/07/05 10:14:05;;;;;;;3.70;1.10;;;;;;;20.05;47.38;100074.05;106507;1256;61683;-73
2023/07/05 10:16:55;;;;;;;3.70;1.30;;;;;;;19.98;47.95;100080.98;107683;1256;59667;-72
2023/07/05 10:19:23;;;;;;;2.10;1.10;;;;;;;19.89;47.26;100086.20;106450;1256;74082;-75
2023/07/05 10:22:06;;;;;;;3.60;2.00;;;;;;;19.89;47.01;100097.78;106174;1256;70497;-74
2023/07/05 10:24:43;;;;;;;4.30;1.50;;;;;;;20.05;48.29;100086.39;105992;1256;73662;-74
2023/07/05 10:27:28;;;;;;;3.70;1.50;;;;;;;20.20;47.78;100096.55;105673;1256;61365;-74
2023/07/05 10:30:03;;;;;;;5.00;1.40;;;;;;;20.38;47.58;100097.71;105957;1256;61240;-74
2023/07/05 10:32:31;;;;;;;2.60;1.20;;;;;;;20.71;48.20;100088.81;106114;1257;73570;-72
2023/07/05 10:35:00;;;;;;;4.00;1.20;;;;;;;20.99;46.89;100099.40;106483;1257;69479;-71
2023/07/05 10:37:35;;;;;;;2.80;1.20;;;;;;;20.97;45.49;100099.98;106336;1256;71825;-73
2023/07/05 10:40:05;;;;;;;4.10;1.30;;;;;;;20.97;45.75;100098.73;106011;1259;61760;-71
2023/07/05 10:42:33;;;;;;;2.20;1.10;;;;;;;21.05;45.77;100096.64;105864;1260;61154;-73
2023/07/05 10:45:01;;;;;;;3.30;1.50;;;;;;;21.06;46.46;100101.88;105937;1260;74605;-73
2023/07/05 10:47:29;;;;;;;2.90;1.20;;;;;;;20.98;46.63;100114.81;105778;1257;70061;-72
2023/07/05 10:50:03;;;;;;;3.40;1.10;;;;;;;20.82;47.03;100118.72;106293;1256;71577;-73
2023/07/05 10:52:33;;;;;;;4.80;1.00;;;;;;;20.66;46.74;100121.49;107470;1256;61153;-73
2023/07/05 10:55:18;;;;;;;4.90;1.30;;;;;;;20.50;46.81;100126.88;108923;1256;59736;-73
2023/07/05 10:57:53;;;;;;;3.30;1.20;;;;;;;20.32;46.77;100121.14;108829;1256;74623;-72
2023/07/05 11:00:39;;;;;;;2.90;1.20;;;;;;;20.18;47.57;100145.29;108883;1256;71274;-72
2023/07/05 11:03:26;;;;;;;4.50;1.50;;;;;;;20.18;48.22;100122.83;107094;1256;71457;-72
2023/07/05 11:05:58;;;;;;;2.70;1.00;;;;;;;20.22;48.09;100142.20;106846;1256;61352;-72
2023/07/05 11:08:29;;;;;;;4.40;1.20;;;;;;;20.39;49.20;100126.86;105993;1257;61200;-71
2023/07/05 11:11:02;;;;;;;2.40;1.20;;;;;;;20.48;48.35;100130.56;106033;1257;72827;-71
2023/07/05 11:13:30;;;;;;;2.40;1.30;;;;;;;20.29;48.43;100141.74;106426;1256;69927;-72
2023/07/05 11:15:58;;;;;;;3.90;1.20;;;;;;;20.10;48.56;100122.73;106717;1257;72689;-75
2023/07/05 11:18:28;;;;;;;2.60;0.90;;;;;;;20.03;48.10;100130.73;105992;1256;61369;-74
2023/07/05 11:20:59;;;;;;;1.60;0.80;;;;;;;19.95;48.35;100132.36;108425;1256;59450;-71
2023/07/05 11:23:44;;;;;;;3.60;1.00;;;;;;;19.95;48.78;100133.39;106911;1259;73584;-70
2023/07/05 11:26:34;;;;;;;2.60;1.20;;;;;;;20.10;48.88;100121.39;106862;1257;71121;-72
2023/07/05 11:29:27;;;;;;;2.50;1.20;;;;;;;20.37;48.79;100131.85;107035;1256;70466;-74
2023/07/05 11:31:53;;;;;;;1.70;0.90;;;;;;;20.42;47.96;100144.08;106370;1257;61711;-73
2023/07/05 11:34:20;;;;;;;2.60;1.40;;;;;;;20.46;47.64;100126.98;106322;1256;62347;-70
2023/07/05 11:36:51;;;;;;;3.20;2.10;;;;;;;20.40;47.98;100127.20;106201;1257;74680;-72